Time;durP1;ratioP1;P1;durP2;ratioP2;P2;SDS_P1;SDS_P2;PMS_P1;PMS_P2;Temp;Humidity;BMP_temperature;BMP_pressure;BME280_temperature;BME280_humidity;BME280_pressure;Samples;Min_cycle;Max_cycle;Signal;HPM_P1;HPM_P2
2023/01/17 00:01:59;;;;;;;0.73;0.73;;;;;;;6.20;100.00;98538.72;5071214;28;20191;-66
2023/01/17 00:09:59;;;;;;;0.40;0.40;;;;;;;6.24;100.00;98530.97;5067986;28;20203;-65
2023/01/17 00:12:29;;;;;;;0.50;0.50;;;;;;;6.21;100.00;98525.97;5070741;28;20204;-66
2023/01/17 00:14:58;;;;;;;3.00;1.77;;;;;;;6.01;100.00;98533.25;5070580;28;20196;-66
2023/01/17 00:17:26;;;;;;;0.53;0.53;;;;;;;6.05;100.00;98523.84;5069281;28;20196;-66
2023/01/17 01:35:07;;;;;;;0.60;0.60;;;;;;;5.36;100.00;98434.94;5074047;28;20222;-71
2023/01/17 01:37:33;;;;;;;0.70;0.70;;;;;;;5.40;100.00;98428.88;5073256;28;20642;-70
2023/01/17 01:40:00;;;;;;;0.50;0.50;;;;;;;5.34;100.00;98442.56;5072883;28;20200;-71
2023/01/17 01:42:28;;;;;;;0.50;0.50;;;;;;;5.39;100.00;98437.38;5073200;28;20667;-71
2023/01/17 01:44:55;;;;;;;0.50;0.50;;;;;;;5.46;100.00;98432.09;5073133;28;20204;-71
2023/01/17 01:47:26;;;;;;;0.50;0.50;;;;;;;5.43;100.00;98421.19;5073744;28;20568;-71
2023/01/17 01:49:53;;;;;;;0.53;0.53;;;;;;;5.57;100.00;98445.38;5073522;28;20218;-64
2023/01/17 01:52:23;;;;;;;0.50;0.50;;;;;;;5.50;100.00;98432.84;5073491;28;20584;-63
2023/01/17 01:54:54;;;;;;;0.70;0.70;;;;;;;5.37;100.00;98439.13;5073165;28;20196;-64
2023/01/17 01:57:24;;;;;;;0.87;0.87;;;;;;;5.52;100.00;98452.31;5073149;28;20245;-64
2023/01/17 01:59:58;;;;;;;0.47;0.47;;;;;;;5.59;100.00;98447.91;5073030;28;20199;-64
2023/01/17 02:02:26;;;;;;;0.50;0.50;;;;;;;5.64;100.00;98431.63;5073337;28;20199;-63
2023/01/17 02:04:53;;;;;;;0.87;0.77;;;;;;;5.71;100.00;98437.41;5073253;28;20250;-63
2023/01/17 02:07:25;;;;;;;0.50;0.50;;;;;;;5.77;100.00;98430.44;5073206;28;20211;-64
2023/01/17 02:09:52;;;;;;;0.43;0.43;;;;;;;5.74;100.00;98448.34;5072719;28;20188;-64
2023/01/17 02:12:20;;;;;;;0.50;0.50;;;;;;;5.77;100.00;98457.59;5072947;28;20200;-64
2023/01/17 02:14:47;;;;;;;0.80;0.80;;;;;;;5.61;100.00;98420.72;5073217;28;20192;-63
2023/01/17 02:17:30;;;;;;;0.60;0.60;;;;;;;5.72;100.00;98433.97;5072778;28;20564;-64
2023/01/17 02:20:31;;;;;;;0.50;0.50;;;;;;;5.75;100.00;98444.91;5072838;28;20203;-63
2023/01/17 02:23:27;;;;;;;0.50;0.50;;;;;;;5.75;100.00;98439.00;5073076;28;20249;-63
2023/01/17 02:26:36;;;;;;;0.50;0.50;;;;;;;5.80;100.00;98454.97;5072585;28;20336;-64
2023/01/17 02:29:47;;;;;;;0.50;0.50;;;;;;;5.83;100.00;98439.63;5064083;28;20224;-64
2023/01/17 02:32:25;;;;;;;0.80;0.80;;;;;;;5.56;100.00;98407.28;5055771;28;20196;-64
2023/01/17 02:34:56;;;;;;;0.80;0.80;;;;;;;5.62;100.00;98437.66;5072688;28;20594;-64
2023/01/17 02:37:28;;;;;;;0.50;0.50;;;;;;;5.65;100.00;98443.50;5072327;28;20196;-63
2023/01/17 02:40:00;;;;;;;0.70;0.70;;;;;;;5.51;100.00;98419.28;5072367;28;20257;-64
2023/01/17 02:42:34;;;;;;;0.50;0.50;;;;;;;5.51;100.00;98432.00;5072360;28;20214;-64
2023/01/17 02:45:02;;;;;;;0.47;0.47;;;;;;;5.45;100.00;98414.34;5071984;28;20211;-64
2023/01/17 02:47:32;;;;;;;0.60;0.60;;;;;;;5.45;100.00;98391.47;5071942;28;20219;-64
2023/01/17 02:50:04;;;;;;;0.60;0.60;;;;;;;5.49;100.00;98410.88;5072385;28;20210;-64
2023/01/17 02:53:01;;;;;;;0.50;0.50;;;;;;;5.40;100.00;98400.91;5072044;28;20192;-64
2023/01/17 02:55:43;;;;;;;0.50;0.50;;;;;;;5.16;100.00;98404.91;5072086;28;20200;-64
2023/01/17 02:58:23;;;;;;;3.50;0.80;;;;;;;5.33;100.00;98429.91;5072180;28;20189;-64
2023/01/17 03:01:03;;;;;;;0.70;0.70;;;;;;;5.25;100.00;98402.16;5072398;28;20206;-63
2023/01/17 03:03:35;;;;;;;0.53;0.53;;;;;;;5.18;100.00;98388.75;5072094;28;20200;-63
2023/01/17 03:06:10;;;;;;;0.90;0.90;;;;;;;5.11;100.00;98354.22;5072037;28;20199;-64
2023/01/17 03:08:40;;;;;;;0.50;0.50;;;;;;;5.32;100.00;98388.44;5071060;28;20257;-63
2023/01/17 03:11:08;;;;;;;1.40;1.27;;;;;;;5.26;100.00;98374.19;5072155;28;20250;-64
2023/01/17 03:13:35;;;;;;;0.60;0.60;;;;;;;5.40;100.00;98393.28;5070334;28;20196;-63
2023/01/17 03:16:05;;;;;;;0.77;0.77;;;;;;;5.34;100.00;98370.59;5071964;28;20207;-64
2023/01/17 03:18:33;;;;;;;0.50;0.50;;;;;;;5.46;100.00;98360.13;5071620;28;20200;-63
2023/01/17 03:21:00;;;;;;;0.60;0.60;;;;;;;5.43;100.00;98365.28;5071577;28;20196;-63
2023/01/17 03:23:26;;;;;;;0.40;0.40;;;;;;;5.40;100.00;98358.56;5071751;28;20253;-64
2023/01/17 03:25:53;;;;;;;0.60;0.60;;;;;;;5.54;100.00;98365.81;5071731;28;20199;-63
2023/01/17 03:28:20;;;;;;;0.50;0.50;;;;;;;5.53;100.00;98351.44;5071687;28;20235;-63
2023/01/17 03:30:47;;;;;;;0.50;0.50;;;;;;;5.39;100.00;98354.38;5071544;28;20269;-64
2023/01/17 03:33:16;;;;;;;1.00;1.00;;;;;;;5.12;100.00;98335.56;5071096;28;20204;-64
2023/01/17 03:35:46;;;;;;;0.73;0.73;;;;;;;5.14;100.00;98356.69;5071415;28;20207;-64
2023/01/17 03:38:13;;;;;;;0.50;0.50;;;;;;;5.28;100.00;98376.66;5071681;28;20204;-63
2023/01/17 03:40:40;;;;;;;0.67;0.67;;;;;;;5.33;100.00;98384.19;5071424;28;20200;-63
2023/01/17 03:43:06;;;;;;;0.63;0.63;;;;;;;5.28;100.00;98369.03;5071136;28;20200;-63
2023/01/17 03:45:34;;;;;;;0.67;0.67;;;;;;;5.21;100.00;98355.66;5071447;28;20204;-64
2023/01/17 03:48:00;;;;;;;0.70;0.70;;;;;;;5.21;100.00;98342.97;5070762;28;20270;-64
2023/01/17 03:50:27;;;;;;;0.50;0.50;;;;;;;5.26;100.00;98343.69;5071205;28;20204;-63
2023/01/17 03:52:56;;;;;;;0.60;0.60;;;;;;;5.30;100.00;98331.72;5071079;28;20196;-64
2023/01/17 03:55:22;;;;;;;0.40;0.40;;;;;;;5.21;100.00;98342.97;5071267;28;20203;-63
2023/01/17 03:57:49;;;;;;;1.17;1.17;;;;;;;5.19;100.00;98337.09;5070914;28;20201;-64
2023/01/17 04:00:17;;;;;;;0.50;0.50;;;;;;;5.19;100.00;98342.19;5071152;28;20254;-64
2023/01/17 04:02:43;;;;;;;1.20;1.20;;;;;;;5.23;100.00;98353.91;5071160;28;20669;-63
2023/01/17 04:05:10;;;;;;;0.73;0.73;;;;;;;5.27;100.00;98352.97;5070661;28;20196;-64
2023/01/17 04:07:37;;;;;;;4.90;0.93;;;;;;;5.41;100.00;98357.69;5070545;28;20216;-63
2023/01/17 04:10:06;;;;;;;0.60;0.60;;;;;;;5.35;100.00;98341.78;5070748;28;20211;-64
2023/01/17 04:12:33;;;;;;;0.50;0.50;;;;;;;5.36;100.00;98334.13;5070834;28;20698;-63
2023/01/17 04:15:00;;;;;;;0.50;0.50;;;;;;;5.37;100.00;98324.75;5070630;28;20211;-63
2023/01/17 04:17:27;;;;;;;0.50;0.50;;;;;;;5.29;100.00;98330.91;5069561;28;20200;-63
2023/01/17 04:19:54;;;;;;;1.60;1.50;;;;;;;5.25;100.00;98336.09;5070795;28;20561;-63
2023/01/17 04:22:21;;;;;;;0.50;0.50;;;;;;;5.23;100.00;98333.56;5069199;28;20196;-63
2023/01/17 04:24:48;;;;;;;0.40;0.40;;;;;;;5.15;100.00;98305.00;5069230;28;20208;-63
2023/01/17 04:27:16;;;;;;;0.50;0.50;;;;;;;5.15;100.00;98330.41;5068400;28;20625;-63
2023/01/17 04:29:43;;;;;;;0.50;0.50;;;;;;;5.20;100.00;98361.59;5070508;28;20231;-63
2023/01/17 04:32:09;;;;;;;0.50;0.50;;;;;;;5.17;100.00;98343.91;5070542;28;20596;-63
2023/01/17 04:34:36;;;;;;;0.50;0.50;;;;;;;5.24;100.00;98344.56;5069621;28;20196;-64
2023/01/17 04:37:06;;;;;;;0.80;0.80;;;;;;;5.23;100.00;98338.66;5070295;28;20199;-64
2023/01/17 04:39:33;;;;;;;0.50;0.50;;;;;;;5.21;100.00;98284.53;5070192;28;20203;-63
2023/01/17 04:42:00;;;;;;;0.50;0.50;;;;;;;5.30;100.00;98307.13;5070453;28;20227;-63
2023/01/17 04:44:28;;;;;;;0.60;0.60;;;;;;;5.29;100.00;98295.34;5070327;28;20594;-63
2023/01/17 04:46:55;;;;;;;0.90;0.90;;;;;;;5.34;100.00;98325.69;5070181;28;20222;-63
2023/01/17 04:49:21;;;;;;;0.83;0.83;;;;;;;5.32;100.00;98334.22;5070102;28;20206;-63
2023/01/17 04:51:48;;;;;;;0.50;0.50;;;;;;;5.22;100.00;98321.78;5070252;28;20682;-63
2023/01/17 04:54:15;;;;;;;1.30;1.27;;;;;;;5.35;100.00;98342.59;5069709;28;20207;-63
2023/01/17 04:56:42;;;;;;;0.70;0.70;;;;;;;5.33;100.00;98330.81;5070104;28;20572;-64
2023/01/17 04:59:09;;;;;;;0.60;0.60;;;;;;;5.34;100.00;98324.84;5070184;28;20297;-64
2023/01/17 05:01:37;;;;;;;0.60;0.60;;;;;;;5.37;100.00;98319.69;5070189;28;20664;-64
2023/01/17 05:04:04;;;;;;;0.57;0.57;;;;;;;5.37;100.00;98301.88;5070109;28;20196;-63
2023/01/17 05:06:31;;;;;;;0.53;0.53;;;;;;;5.42;100.00;98333.13;5069970;28;20203;-63
2023/01/17 05:08:58;;;;;;;0.50;0.50;;;;;;;5.42;100.00;98328.03;5069600;28;20211;-63
2023/01/17 05:11:25;;;;;;;0.60;0.60;;;;;;;5.42;100.00;98339.03;5070300;28;20199;-64
2023/01/17 05:13:51;;;;;;;0.60;0.60;;;;;;;5.51;100.00;98335.41;5070156;28;20192;-63
2023/01/17 05:16:19;;;;;;;0.50;0.50;;;;;;;5.54;100.00;98345.50;5070384;28;20222;-64
2023/01/17 05:18:50;;;;;;;0.50;0.50;;;;;;;5.49;100.00;98329.53;5069958;28;20625;-63
2023/01/17 05:21:17;;;;;;;0.50;0.50;;;;;;;5.56;100.00;98336.09;5070221;28;20207;-63
2023/01/17 05:23:43;;;;;;;0.53;0.53;;;;;;;5.61;100.00;98344.44;5069973;28;20594;-63
2023/01/17 05:26:10;;;;;;;0.50;0.50;;;;;;;5.63;100.00;98342.69;5070176;28;20664;-63
2023/01/17 05:28:37;;;;;;;0.40;0.40;;;;;;;5.65;100.00;98336.72;5069571;28;20211;-63
2023/01/17 05:31:04;;;;;;;0.40;0.40;;;;;;;5.60;100.00;98345.31;5070002;28;20215;-64
2023/01/17 05:33:31;;;;;;;0.50;0.50;;;;;;;5.68;100.00;98333.25;5069876;28;20199;-63
2023/01/17 05:35:59;;;;;;;0.60;0.60;;;;;;;5.71;100.00;98345.88;5068353;28;20208;-63
2023/01/17 05:38:26;;;;;;;0.50;0.50;;;;;;;5.72;100.00;98372.94;5069678;28;20203;-63
2023/01/17 05:40:53;;;;;;;0.60;0.60;;;;;;;5.72;100.00;98383.13;5068460;28;20718;-64
2023/01/17 05:43:19;;;;;;;0.60;0.60;;;;;;;5.75;100.00;98375.44;5069491;28;20192;-63
2023/01/17 05:45:48;;;;;;;0.57;0.57;;;;;;;5.75;100.00;98357.63;5069673;28;20571;-63
2023/01/17 05:48:15;;;;;;;0.50;0.50;;;;;;;5.78;100.00;98372.81;5069863;28;20269;-63
2023/01/17 05:50:42;;;;;;;0.50;0.50;;;;;;;5.79;100.00;98379.53;5069680;28;20211;-63
2023/01/17 05:53:12;;;;;;;0.57;0.57;;;;;;;5.77;100.00;98355.88;5069686;28;20196;-64
2023/01/17 05:55:40;;;;;;;0.60;0.60;;;;;;;5.79;100.00;98360.03;5069820;28;20200;-63
2023/01/17 05:58:08;;;;;;;0.50;0.50;;;;;;;5.78;100.00;98367.72;5067593;28;20203;-63
2023/01/17 06:00:36;;;;;;;0.67;0.67;;;;;;;5.75;100.00;98360.97;5058657;28;20212;-63
2023/01/17 06:03:03;;;;;;;0.50;0.50;;;;;;;5.77;100.00;98355.88;5064313;28;20214;-63
2023/01/17 06:05:30;;;;;;;0.50;0.50;;;;;;;5.64;100.00;98334.19;5068987;28;20200;-63
2023/01/17 06:07:57;;;;;;;0.60;0.60;;;;;;;5.61;100.00;98364.78;5072443;28;20270;-64
2023/01/17 06:10:27;;;;;;;0.50;0.50;;;;;;;5.58;100.00;98387.75;5073097;28;20204;-63
2023/01/17 06:13:02;;;;;;;0.80;0.80;;;;;;;5.57;100.00;98401.31;5072580;28;20258;-63
2023/01/17 06:15:29;;;;;;;0.50;0.50;;;;;;;5.44;100.00;98377.09;5073287;28;20195;-63
2023/01/17 06:17:56;;;;;;;0.60;0.60;;;;;;;5.45;100.00;98383.84;5072809;28;20565;-63
2023/01/17 06:20:23;;;;;;;0.93;0.93;;;;;;;5.52;100.00;98396.38;5072561;28;20188;-63
2023/01/17 06:22:50;;;;;;;0.60;0.60;;;;;;;5.46;100.00;98383.00;5073008;28;20571;-63
2023/01/17 06:25:16;;;;;;;0.63;0.63;;;;;;;5.50;100.00;98403.19;5072674;28;20584;-64
2023/01/17 06:27:44;;;;;;;0.50;0.50;;;;;;;5.53;100.00;98399.72;5072764;28;20569;-63
2023/01/17 06:30:12;;;;;;;0.50;0.50;;;;;;;5.54;100.00;98376.81;5072249;28;20239;-63
2023/01/17 06:32:39;;;;;;;0.40;0.40;;;;;;;5.57;100.00;98383.53;5071135;28;20200;-63
2023/01/17 06:35:06;;;;;;;0.50;0.50;;;;;;;5.54;100.00;98373.44;5071375;28;20658;-63
2023/01/17 06:37:33;;;;;;;4.53;0.97;;;;;;;5.56;100.00;98374.22;5072239;28;20200;-64
2023/01/17 06:40:00;;;;;;;0.67;0.67;;;;;;;5.58;100.00;98369.97;5072949;28;20549;-63
2023/01/17 06:42:26;;;;;;;0.80;0.80;;;;;;;5.48;100.00;98350.75;5072558;28;20270;-63
2023/01/17 06:44:55;;;;;;;0.43;0.43;;;;;;;5.70;100.00;98392.50;5071988;28;20223;-63
2023/01/17 06:47:21;;;;;;;0.50;0.50;;;;;;;5.70;100.00;98395.88;5071470;28;20576;-62
2023/01/17 06:49:48;;;;;;;0.50;0.50;;;;;;;5.76;100.00;98384.72;5063605;28;20201;-64
2023/01/17 06:52:15;;;;;;;0.90;0.90;;;;;;;5.87;100.00;98370.03;5069486;28;20211;-64
2023/01/17 06:54:42;;;;;;;0.53;0.53;;;;;;;5.92;100.00;98362.25;5070463;28;20200;-63
2023/01/17 06:57:09;;;;;;;0.50;0.50;;;;;;;5.97;100.00;98357.91;5069122;28;20212;-62
2023/01/17 06:59:35;;;;;;;0.53;0.53;;;;;;;5.97;100.00;98348.56;5069960;28;20197;-64
2023/01/17 07:02:03;;;;;;;0.50;0.50;;;;;;;5.99;100.00;98354.41;5070324;28;20216;-64
2023/01/17 07:04:30;;;;;;;0.73;0.73;;;;;;;5.85;100.00;98338.69;5068652;28;20204;-64
2023/01/17 07:06:57;;;;;;;0.93;0.93;;;;;;;5.93;100.00;98352.06;5070544;28;20694;-64
2023/01/17 07:09:24;;;;;;;0.50;0.50;;;;;;;5.99;100.00;98345.94;5070335;28;20227;-63
2023/01/17 07:11:58;;;;;;;0.63;0.63;;;;;;;6.00;100.00;98338.28;5070361;28;20672;-64
2023/01/17 07:14:25;;;;;;;0.50;0.50;;;;;;;6.06;100.00;98343.19;5070841;28;20204;-64
2023/01/17 07:16:52;;;;;;;0.70;0.70;;;;;;;6.07;100.00;98364.38;5069489;28;20203;-63
2023/01/17 07:19:20;;;;;;;0.50;0.50;;;;;;;6.07;100.00;98344.88;5069382;28;20196;-64
2023/01/17 07:21:50;;;;;;;0.43;0.43;;;;;;;6.07;100.00;98344.88;5070534;28;20583;-62
2023/01/17 07:24:17;;;;;;;0.60;0.60;;;;;;;6.12;100.00;98365.91;5069281;28;20215;-64
2023/01/17 07:26:43;;;;;;;0.90;0.90;;;;;;;6.27;100.00;98362.91;5069060;28;20238;-64
2023/01/17 07:29:10;;;;;;;0.60;0.60;;;;;;;6.35;100.00;98355.06;5068138;28;20228;-64
2023/01/17 07:31:39;;;;;;;0.43;0.43;;;;;;;6.29;100.00;98366.25;5069033;28;20565;-64
2023/01/17 07:34:06;;;;;;;0.50;0.50;;;;;;;6.40;100.00;98363.38;5068305;28;20607;-64
2023/01/17 07:36:34;;;;;;;0.77;0.77;;;;;;;6.52;100.00;98369.84;5070158;28;20207;-64
2023/01/17 07:39:01;;;;;;;0.50;0.50;;;;;;;6.57;100.00;98345.06;5070189;28;20246;-64
2023/01/17 07:41:30;;;;;;;0.47;0.47;;;;;;;6.50;100.00;98341.03;5070530;28;20207;-64
2023/01/17 07:43:57;;;;;;;0.40;0.40;;;;;;;6.57;100.00;98370.50;5070079;28;20208;-64
2023/01/17 07:46:24;;;;;;;0.40;0.40;;;;;;;6.56;100.00;98376.50;5070301;28;20208;-65
2023/01/17 07:48:50;;;;;;;0.40;0.40;;;;;;;6.52;100.00;98375.75;5067983;28;20229;-64
2023/01/17 07:51:17;;;;;;;0.40;0.40;;;;;;;6.61;100.00;98367.00;5070330;28;20200;-64
2023/01/17 07:53:45;;;;;;;1.00;1.00;;;;;;;6.76;100.00;98356.31;5070382;28;20214;-64
2023/01/17 07:56:12;;;;;;;0.60;0.60;;;;;;;6.79;100.00;98359.63;5070064;28;20569;-65
2023/01/17 07:58:39;;;;;;;0.57;0.57;;;;;;;6.78;100.00;98374.97;5069669;28;20200;-64
2023/01/17 08:01:08;;;;;;;0.43;0.43;;;;;;;6.84;100.00;98367.13;5068447;28;20196;-65
2023/01/17 08:03:38;;;;;;;0.40;0.40;;;;;;;6.85;100.00;98371.31;5068564;28;20269;-65
2023/01/17 08:06:07;;;;;;;0.50;0.50;;;;;;;6.95;100.00;98387.97;5060295;28;20561;-65
2023/01/17 08:08:34;;;;;;;0.70;0.70;;;;;;;6.90;100.00;98377.13;5063128;28;20641;-64
2023/01/17 08:11:02;;;;;;;1.27;1.27;;;;;;;6.94;100.00;98385.50;5061186;28;20227;-65
2023/01/17 08:13:29;;;;;;;2.67;0.93;;;;;;;7.06;100.00;98385.94;5066309;28;20679;-64
2023/01/17 08:15:55;;;;;;;0.50;0.50;;;;;;;7.11;100.00;98394.25;5066966;28;20204;-64
2023/01/17 08:18:22;;;;;;;0.80;0.80;;;;;;;7.15;100.00;98398.38;5063757;28;20196;-64
2023/01/17 08:20:49;;;;;;;2.87;2.77;;;;;;;7.13;100.00;98397.59;5060224;28;20200;-65
2023/01/17 08:23:15;;;;;;;0.80;0.80;;;;;;;7.05;100.00;98389.34;5061788;28;20216;-65
2023/01/17 08:25:42;;;;;;;0.53;0.53;;;;;;;7.12;100.00;98390.81;5060390;28;20200;-65
2023/01/17 08:28:10;;;;;;;0.50;0.50;;;;;;;7.04;100.00;98386.88;5062014;28;20243;-65
2023/01/17 08:30:37;;;;;;;0.70;0.70;;;;;;;7.00;100.00;98381.03;5067021;28;20242;-64
2023/01/17 08:33:04;;;;;;;0.63;0.63;;;;;;;7.00;100.00;98359.81;5064303;28;20207;-65
2023/01/17 08:35:31;;;;;;;0.60;0.60;;;;;;;6.97;100.00;98367.56;5063395;28;20211;-64
2023/01/17 08:38:03;;;;;;;0.40;0.40;;;;;;;6.98;100.00;98367.50;5062448;28;20212;-65
2023/01/17 08:40:30;;;;;;;0.50;0.50;;;;;;;7.03;100.00;98375.00;5060209;28;20254;-64
2023/01/17 08:42:59;;;;;;;0.50;0.50;;;;;;;7.02;100.00;98363.97;5059328;28;20689;-64
2023/01/17 08:45:27;;;;;;;0.93;0.93;;;;;;;7.02;100.00;98353.78;5059507;28;20231;-64
2023/01/17 08:47:54;;;;;;;1.03;1.03;;;;;;;7.05;100.00;98379.16;5065892;28;20203;-64
2023/01/17 08:50:21;;;;;;;0.40;0.40;;;;;;;7.10;100.00;98376.47;5060794;28;20208;-65
2023/01/17 08:52:48;;;;;;;0.43;0.43;;;;;;;7.14;100.00;98368.66;5060740;28;20204;-64
2023/01/17 08:55:15;;;;;;;0.60;0.60;;;;;;;7.18;100.00;98379.59;5062538;28;20261;-64
2023/01/17 08:57:42;;;;;;;0.50;0.50;;;;;;;7.17;100.00;98383.84;5061184;28;20632;-65
2023/01/17 09:00:10;;;;;;;0.50;0.50;;;;;;;7.18;100.00;98374.50;5061618;28;20200;-65
2023/01/17 09:02:39;;;;;;;0.70;0.70;;;;;;;7.16;100.00;98364.38;5061703;28;20204;-65
2023/01/17 09:05:06;;;;;;;0.60;0.60;;;;;;;7.30;100.00;98395.31;5062515;28;20208;-64
2023/01/17 09:07:33;;;;;;;0.50;0.50;;;;;;;7.41;100.00;98397.50;5063039;28;20204;-65
2023/01/17 09:10:00;;;;;;;0.80;0.80;;;;;;;7.44;100.00;98410.16;5062616;28;20211;-65
2023/01/17 09:12:27;;;;;;;2.50;2.30;;;;;;;7.45;100.00;98428.84;5057281;28;20261;-65
2023/01/17 09:14:53;;;;;;;1.17;1.17;;;;;;;7.46;100.00;98430.53;5058603;28;20765;-65
2023/01/17 09:17:20;;;;;;;0.50;0.50;;;;;;;7.50;100.00;98437.16;5068170;28;20199;-65
2023/01/17 09:19:48;;;;;;;0.40;0.40;;;;;;;7.55;100.00;98430.22;5067526;28;20281;-65
2023/01/17 09:22:15;;;;;;;0.60;0.60;;;;;;;7.61;100.00;98424.91;5066586;28;20588;-65
2023/01/17 09:24:42;;;;;;;0.50;0.50;;;;;;;7.64;100.00;98415.44;5068894;28;20192;-64
2023/01/17 09:27:09;;;;;;;0.40;0.40;;;;;;;7.70;100.00;98409.28;5068633;28;20202;-65
2023/01/17 09:29:36;;;;;;;0.50;0.50;;;;;;;7.74;100.00;98409.13;5058863;28;20302;-65
2023/01/17 09:32:02;;;;;;;0.50;0.50;;;;;;;7.73;100.00;98404.06;5062600;28;20261;-65
2023/01/17 09:34:30;;;;;;;0.70;0.70;;;;;;;7.79;100.00;98401.31;5062877;28;20668;-64
2023/01/17 09:36:58;;;;;;;1.93;1.93;;;;;;;7.77;100.00;98411.56;5065001;28;20293;-64
2023/01/17 09:39:25;;;;;;;0.40;0.40;;;;;;;7.82;100.00;98422.44;5063425;28;20196;-64
2023/01/17 09:41:58;;;;;;;0.60;0.60;;;;;;;7.85;100.00;98418.97;5068702;28;20208;-64
2023/01/17 09:44:29;;;;;;;1.00;1.00;;;;;;;7.80;100.00;98405.53;5065440;28;20203;-65
2023/01/17 09:47:03;;;;;;;0.43;0.43;;;;;;;7.85;100.00;98398.56;5064542;28;20207;-65
2023/01/17 09:49:36;;;;;;;0.60;0.60;;;;;;;7.86;100.00;98384.91;5063496;28;20260;-64
2023/01/17 09:52:07;;;;;;;0.47;0.47;;;;;;;7.91;100.00;98377.94;5067051;28;20281;-64
2023/01/17 09:54:37;;;;;;;0.90;0.90;;;;;;;8.03;100.00;98377.47;5069369;28;20593;-64
2023/01/17 09:57:13;;;;;;;0.80;0.80;;;;;;;8.11;100.00;98349.13;5070020;28;20688;-64
2023/01/17 09:59:49;;;;;;;0.40;0.40;;;;;;;8.22;100.00;98368.25;5069095;28;20577;-65
2023/01/17 10:02:47;;;;;;;1.33;1.33;;;;;;;8.36;100.00;98362.69;5068653;28;20269;-65
2023/01/17 10:05:31;;;;;;;0.67;0.67;;;;;;;8.51;100.00;98353.59;5070213;28;20261;-65
2023/01/17 10:08:13;;;;;;;0.70;0.70;;;;;;;8.55;100.00;98339.81;5068794;28;20196;-65
2023/01/17 10:10:42;;;;;;;0.50;0.50;;;;;;;8.61;100.00;98349.78;5071401;28;20587;-65
2023/01/17 10:13:25;;;;;;;0.70;0.70;;;;;;;8.59;100.00;98341.38;5068519;28;20218;-64
2023/01/17 10:16:17;;;;;;;0.57;0.57;;;;;;;8.70;100.00;98332.38;5070389;28;20207;-64
2023/01/17 10:19:18;;;;;;;1.33;1.33;;;;;;;8.64;100.00;98324.13;5069063;28;20219;-64
2023/01/17 10:22:22;;;;;;;0.40;0.40;;;;;;;8.61;100.00;98330.19;5065964;28;20203;-65
2023/01/17 10:25:23;;;;;;;0.40;0.40;;;;;;;8.80;100.00;98340.50;5069536;28;20699;-65
2023/01/17 10:27:56;;;;;;;0.47;0.47;;;;;;;8.96;100.00;98336.44;5068953;28;20200;-64
2023/01/17 10:30:30;;;;;;;1.57;1.57;;;;;;;8.95;100.00;98324.53;5068431;28;20259;-64
2023/01/17 10:33:02;;;;;;;0.70;0.70;;;;;;;8.95;100.00;98332.22;5068897;28;20200;-64
2023/01/17 10:35:33;;;;;;;0.50;0.50;;;;;;;9.08;100.00;98361.50;5063275;28;20204;-64
2023/01/17 10:38:04;;;;;;;0.40;0.40;;;;;;;9.00;100.00;98326.94;5069152;28;20207;-64
2023/01/17 10:40:42;;;;;;;0.90;0.90;;;;;;;9.10;100.00;98344.38;5069278;28;20207;-64
2023/01/17 10:43:17;;;;;;;0.77;0.77;;;;;;;9.18;100.00;98316.78;5071550;28;20208;-64
2023/01/17 10:45:51;;;;;;;0.87;0.87;;;;;;;9.11;100.00;98320.47;5064136;28;20204;-64
2023/01/17 10:48:29;;;;;;;1.57;1.57;;;;;;;9.18;100.00;98332.09;5062506;28;20204;-64
2023/01/17 10:51:02;;;;;;;0.67;0.67;;;;;;;9.29;100.00;98345.28;5070330;28;20199;-64
2023/01/17 10:53:45;;;;;;;2.10;2.00;;;;;;;9.33;100.00;98336.59;5069934;28;20203;-64
2023/01/17 10:56:17;;;;;;;0.80;0.80;;;;;;;9.29;100.00;98334.22;5070815;28;20211;-64
2023/01/17 10:58:46;;;;;;;0.50;0.50;;;;;;;9.35;100.00;98339.06;5070433;28;20253;-65
2023/01/17 11:01:17;;;;;;;0.67;0.67;;;;;;;9.36;100.00;98316.00;5070973;28;20664;-65
2023/01/17 11:03:50;;;;;;;0.60;0.60;;;;;;;9.39;100.00;98318.44;5070923;28;20196;-65
2023/01/17 11:06:23;;;;;;;0.60;0.60;;;;;;;9.50;100.00;98300.88;5067660;28;20582;-65
2023/01/17 11:08:55;;;;;;;0.60;0.60;;;;;;;9.58;100.00;98305.69;5068227;28;20218;-65
2023/01/17 11:11:24;;;;;;;0.90;0.90;;;;;;;9.50;100.00;98290.66;5068854;28;20208;-64
2023/01/17 11:13:54;;;;;;;0.73;0.63;;;;;;;9.65;100.00;98306.25;5069425;28;20211;-64
2023/01/17 11:16:24;;;;;;;0.97;0.97;;;;;;;9.70;100.00;98301.75;5064281;28;20547;-64
2023/01/17 11:19:07;;;;;;;2.97;0.97;;;;;;;9.64;100.00;98294.34;5062740;28;20204;-65
2023/01/17 11:21:37;;;;;;;1.50;1.10;;;;;;;9.74;100.00;98295.59;5062182;28;20282;-65
2023/01/17 11:24:11;;;;;;;0.40;0.40;;;;;;;9.77;100.00;98301.41;5066870;28;20197;-64
2023/01/17 11:26:48;;;;;;;0.60;0.60;;;;;;;9.82;100.00;98294.34;5063140;28;20265;-65
2023/01/17 11:29:25;;;;;;;0.70;0.70;;;;;;;9.88;100.00;98295.81;5067626;28;20231;-65
2023/01/17 11:31:52;;;;;;;0.60;0.60;;;;;;;9.83;100.00;98284.94;5065348;28;20196;-64
2023/01/17 11:34:23;;;;;;;0.83;0.83;;;;;;;9.84;100.00;98284.06;5064655;28;20676;-64
2023/01/17 11:37:08;;;;;;;0.50;0.50;;;;;;;9.85;100.00;98284.00;5063182;28;20206;-64
2023/01/17 11:39:35;;;;;;;0.40;0.40;;;;;;;9.94;100.00;98298.09;5069628;28;20283;-65
2023/01/17 11:42:06;;;;;;;0.50;0.50;;;;;;;10.06;100.00;98294.97;5067398;28;20229;-64
2023/01/17 11:44:34;;;;;;;0.40;0.40;;;;;;;10.00;100.00;98282.47;5069274;28;20653;-65
2023/01/17 11:47:09;;;;;;;0.53;0.53;;;;;;;10.00;100.00;98298.66;5066319;28;20222;-65
2023/01/17 11:49:36;;;;;;;0.60;0.60;;;;;;;9.92;100.00;98284.53;5068950;28;20211;-65
2023/01/17 11:52:09;;;;;;;0.50;0.50;;;;;;;9.82;100.00;98278.19;5069368;28;20576;-64
2023/01/17 11:54:39;;;;;;;0.80;0.80;;;;;;;9.93;100.00;98276.78;5069087;28;20199;-64
2023/01/17 11:57:20;;;;;;;0.50;0.50;;;;;;;9.96;100.00;98275.81;5069637;28;20561;-64
2023/01/17 11:59:47;;;;;;;0.60;0.60;;;;;;;9.99;100.00;98270.56;5065087;28;20200;-64
2023/01/17 12:02:37;;;;;;;1.13;1.13;;;;;;;9.92;100.00;98251.25;5066123;28;20212;-64
2023/01/17 12:05:27;;;;;;;0.47;0.47;;;;;;;10.09;100.00;98271.78;5058957;28;20208;-65
2023/01/17 12:08:02;;;;;;;0.77;0.77;;;;;;;10.16;100.00;98287.75;5059691;28;20204;-65
2023/01/17 12:10:37;;;;;;;0.77;0.77;;;;;;;10.18;100.00;98284.19;5064709;28;20293;-65
2023/01/17 12:16:30;;;;;;;0.73;0.73;;;;;;;10.24;100.00;98267.75;5066040;28;20207;-66
2023/01/17 12:19:17;;;;;;;0.73;0.73;;;;;;;10.15;100.00;98268.97;5068714;28;21063;-65
2023/01/17 12:21:59;;;;;;;0.50;0.50;;;;;;;10.23;100.00;98264.34;5067279;28;20260;-65
2023/01/17 12:24:49;;;;;;;0.60;0.60;;;;;;;10.30;100.00;98250.34;5062416;28;20646;-65
2023/01/17 12:27:24;;;;;;;0.50;0.50;;;;;;;10.23;100.00;98254.09;5067449;28;20204;-65
2023/01/17 12:30:05;;;;;;;0.40;0.40;;;;;;;10.24;100.00;98245.50;5068425;28;20681;-65
2023/01/17 12:32:51;;;;;;;0.50;0.50;;;;;;;10.05;100.00;98228.50;5069650;28;20250;-65
2023/01/17 12:35:26;;;;;;;1.13;1.13;;;;;;;10.05;100.00;98229.31;5068618;28;20203;-65
2023/01/17 12:37:58;;;;;;;0.50;0.50;;;;;;;10.17;100.00;98231.34;5069418;28;20201;-65
2023/01/17 12:40:30;;;;;;;0.90;0.90;;;;;;;10.16;100.00;98216.88;5067620;28;20599;-65
2023/01/17 12:43:02;;;;;;;0.50;0.50;;;;;;;10.30;100.00;98235.00;5066688;28;20664;-66
2023/01/17 12:45:33;;;;;;;0.70;0.70;;;;;;;10.18;100.00;98225.31;5063549;28;20204;-65
2023/01/17 12:48:05;;;;;;;1.27;1.27;;;;;;;10.28;100.00;98218.84;5067075;28;20215;-65
2023/01/17 12:50:38;;;;;;;0.60;0.60;;;;;;;10.24;100.00;98219.88;5064547;28;20215;-66
2023/01/17 12:53:17;;;;;;;1.27;1.27;;;;;;;10.31;100.00;98208.44;5065981;28;20203;-65
2023/01/17 12:55:51;;;;;;;0.57;0.57;;;;;;;10.31;100.00;98205.88;5065302;28;20207;-65
2023/01/17 12:58:22;;;;;;;1.23;1.23;;;;;;;10.43;100.00;98202.75;5066530;28;20257;-64
2023/01/17 13:00:58;;;;;;;1.20;1.20;;;;;;;10.58;100.00;98203.72;5069200;28;20273;-65
2023/01/17 13:03:35;;;;;;;0.50;0.50;;;;;;;10.56;100.00;98179.94;5069688;28;20196;-65
2023/01/17 13:06:03;;;;;;;0.90;0.90;;;;;;;10.48;100.00;98187.97;5070190;28;20231;-65
2023/01/17 13:08:40;;;;;;;1.90;1.90;;;;;;;10.57;100.00;98196.94;5070786;28;20287;-65
2023/01/17 13:11:12;;;;;;;0.60;0.60;;;;;;;10.59;100.00;98190.03;5070637;28;20223;-65
2023/01/17 13:13:42;;;;;;;0.43;0.43;;;;;;;10.65;100.00;98205.09;5070753;28;20283;-64